Time;durP1;ratioP1;P1;durP2;ratioP2;P2;SDS_P1;SDS_P2;PMS_P1;PMS_P2;Temp;Humidity;BMP_temperature;BMP_pressure;BME280_temperature;BME280_humidity;BME280_pressure;Samples;Min_cycle;Max_cycle;Signal;HPM_P1;HPM_P2
2022/07/06 00:01:24;;;;;;;2.90;1.90;;;15.20;99.90;;;;;;5077120;28;20203;-75
2022/07/06 00:03:52;;;;;;;4.10;1.87;;;15.20;99.90;;;;;;5074206;28;20210;-77
2022/07/06 00:06:24;;;;;;;1.70;1.47;;;15.20;99.90;;;;;;5074617;28;20673;-76
2022/07/06 00:08:52;;;;;;;4.70;1.63;;;15.20;99.90;;;;;;5074273;28;20273;-76
2022/07/06 00:11:20;;;;;;;1.90;1.70;;;15.20;99.90;;;;;;5074294;28;20311;-75
2022/07/06 00:13:49;;;;;;;6.17;1.90;;;15.10;99.90;;;;;;5074627;28;20294;-76
2022/07/06 00:16:17;;;;;;;1.90;1.60;;;15.10;99.90;;;;;;5074773;28;20218;-74
2022/07/06 00:18:46;;;;;;;3.90;1.80;;;15.00;99.90;;;;;;5074492;28;20290;-75
2022/07/06 00:21:14;;;;;;;4.37;1.70;;;15.00;99.90;;;;;;5072322;28;20200;-76
2022/07/06 00:23:44;;;;;;;2.33;1.60;;;15.00;99.90;;;;;;5070410;28;20299;-76
2022/07/06 00:26:12;;;;;;;1.90;1.70;;;15.00;99.90;;;;;;5074170;28;20726;-77
2022/07/06 00:28:41;;;;;;;2.43;1.67;;;15.00;99.90;;;;;;5076955;28;20298;-76
2022/07/06 00:31:09;;;;;;;2.30;1.60;;;14.90;99.90;;;;;;5074146;28;20303;-75
2022/07/06 00:33:38;;;;;;;2.57;1.70;;;15.00;99.90;;;;;;5074076;28;20212;-77
2022/07/06 00:36:06;;;;;;;3.73;1.60;;;15.00;99.90;;;;;;5073557;28;20227;-77
2022/07/06 00:38:34;;;;;;;2.37;1.60;;;15.10;99.90;;;;;;5073735;28;20208;-74
2022/07/06 00:41:04;;;;;;;3.93;1.80;;;15.10;99.90;;;;;;5073073;28;20212;-78
2022/07/06 00:43:51;;;;;;;4.60;1.97;;;15.10;99.90;;;;;;5074073;28;20207;-77
2022/07/06 00:46:20;;;;;;;2.03;1.33;;;15.10;99.90;;;;;;5073894;28;20618;-75
2022/07/06 00:48:48;;;;;;;4.47;1.90;;;15.10;99.90;;;;;;5073316;28;20209;-76
2022/07/06 00:51:16;;;;;;;3.70;1.50;;;15.20;99.90;;;;;;5073565;28;20211;-76
2022/07/06 00:53:47;;;;;;;3.60;1.70;;;15.20;99.90;;;;;;5074133;28;20698;-74
2022/07/06 00:56:16;;;;;;;5.23;1.90;;;15.30;99.90;;;;;;5077184;28;20196;-77
2022/07/06 00:58:45;;;;;;;4.00;1.77;;;15.40;99.90;;;;;;5076625;28;20202;-77
2022/07/06 01:01:13;;;;;;;4.60;1.90;;;15.40;99.90;;;;;;5076979;28;20203;-77
2022/07/06 01:03:42;;;;;;;4.67;1.77;;;15.50;99.90;;;;;;5076424;28;20664;-78
2022/07/06 01:06:11;;;;;;;3.80;1.80;;;15.50;99.90;;;;;;5074854;28;20303;-76
2022/07/06 01:08:40;;;;;;;5.10;1.80;;;15.40;99.90;;;;;;5066579;28;20343;-76
2022/07/06 01:11:08;;;;;;;3.00;1.67;;;15.40;99.90;;;;;;5058283;28;20199;-77
2022/07/06 01:13:38;;;;;;;5.23;2.00;;;15.40;99.90;;;;;;5073484;28;20273;-77
2022/07/06 01:16:06;;;;;;;3.93;1.87;;;15.30;99.90;;;;;;5073492;28;20209;-76
2022/07/06 01:18:35;;;;;;;3.17;1.90;;;15.30;99.90;;;;;;5072825;28;20299;-77
2022/07/06 01:21:09;;;;;;;4.27;2.00;;;15.30;99.90;;;;;;5072684;28;20253;-77
2022/07/06 01:23:42;;;;;;;4.20;2.07;;;15.30;99.90;;;;;;5072889;28;20287;-79
2022/07/06 01:26:14;;;;;;;4.90;1.80;;;15.30;99.90;;;;;;5064305;28;20668;-77
2022/07/06 01:28:43;;;;;;;4.43;2.00;;;15.30;99.90;;;;;;5072463;28;20238;-78
2022/07/06 01:31:20;;;;;;;5.10;1.90;;;15.30;99.90;;;;;;5072792;28;20242;-78
2022/07/06 01:33:50;;;;;;;9.10;1.90;;;15.30;99.90;;;;;;5072258;28;20681;-77
2022/07/06 01:36:19;;;;;;;3.37;1.90;;;15.30;99.90;;;;;;5072500;28;20290;-76
2022/07/06 01:38:49;;;;;;;5.57;2.10;;;15.30;99.90;;;;;;5072632;28;20253;-78
2022/07/06 01:41:17;;;;;;;3.13;1.87;;;15.30;99.90;;;;;;5071847;28;20273;-77
2022/07/06 01:43:46;;;;;;;3.40;1.90;;;15.30;99.90;;;;;;5071547;28;20238;-76
2022/07/06 01:46:14;;;;;;;2.93;1.80;;;15.20;99.90;;;;;;5071282;28;20275;-77
2022/07/06 01:48:43;;;;;;;4.33;1.90;;;15.20;99.90;;;;;;5072279;28;20257;-77
2022/07/06 01:51:12;;;;;;;3.70;2.10;;;15.10;99.90;;;;;;5072341;28;20235;-78
2022/07/06 01:53:42;;;;;;;5.97;2.20;;;15.10;99.90;;;;;;5072274;28;20258;-78
2022/07/06 01:56:11;;;;;;;3.70;2.10;;;15.10;99.90;;;;;;5072390;28;20219;-74
2022/07/06 01:58:39;;;;;;;3.10;2.03;;;15.00;99.90;;;;;;5072455;28;20223;-75
2022/07/06 02:01:09;;;;;;;3.87;2.27;;;15.00;99.90;;;;;;5072084;28;20301;-76
2022/07/06 02:03:38;;;;;;;3.80;2.10;;;14.90;99.90;;;;;;5071779;28;20250;-77
2022/07/06 02:06:07;;;;;;;6.17;2.30;;;14.90;99.90;;;;;;5072157;28;20640;-76
2022/07/06 02:08:35;;;;;;;4.63;2.40;;;14.80;99.90;;;;;;5072330;28;20287;-77
2022/07/06 02:11:06;;;;;;;3.77;2.10;;;14.80;99.90;;;;;;5072114;28;20241;-77
2022/07/06 02:13:35;;;;;;;9.77;2.47;;;14.80;99.90;;;;;;5071531;28;20701;-74
2022/07/06 02:16:04;;;;;;;5.83;2.57;;;14.70;99.90;;;;;;5071666;28;20238;-75
2022/07/06 02:18:33;;;;;;;3.87;2.30;;;14.70;99.90;;;;;;5072273;28;20207;-76
2022/07/06 02:21:01;;;;;;;3.33;2.20;;;14.70;99.90;;;;;;5071918;28;20208;-78
2022/07/06 02:23:29;;;;;;;5.63;2.60;;;14.60;99.90;;;;;;5071815;28;20226;-78
2022/07/06 02:25:57;;;;;;;3.67;2.40;;;14.60;99.90;;;;;;5072634;28;20254;-76
2022/07/06 02:28:27;;;;;;;4.23;2.60;;;14.60;99.90;;;;;;5071938;28;20666;-76
2022/07/06 02:30:55;;;;;;;3.63;2.43;;;14.60;99.90;;;;;;5071223;28;20238;-77
2022/07/06 02:33:23;;;;;;;5.43;2.43;;;14.60;99.90;;;;;;5070228;28;20306;-76
2022/07/06 02:35:51;;;;;;;2.87;2.27;;;14.50;99.90;;;;;;5071244;28;20231;-76
2022/07/06 02:38:19;;;;;;;4.67;2.50;;;14.50;99.90;;;;;;5071906;28;20294;-76
2022/07/06 02:40:48;;;;;;;4.30;2.73;;;14.50;99.90;;;;;;5071849;28;20211;-74
2022/07/06 02:43:16;;;;;;;5.03;2.60;;;14.50;99.90;;;;;;5071894;28;20290;-73
2022/07/06 02:45:46;;;;;;;6.07;2.60;;;14.50;99.90;;;;;;5071768;28;20207;-74
2022/07/06 02:48:14;;;;;;;4.63;2.80;;;14.50;99.90;;;;;;5071542;28;20247;-76
2022/07/06 02:50:42;;;;;;;4.33;2.60;;;14.50;99.90;;;;;;5071333;28;20298;-75
2022/07/06 02:53:11;;;;;;;6.33;2.70;;;14.50;99.90;;;;;;5071329;28;20322;-76
2022/07/06 02:55:39;;;;;;;5.27;2.80;;;14.50;99.90;;;;;;5073078;28;20322;-75
2022/07/06 02:58:07;;;;;;;4.07;2.60;;;14.50;99.90;;;;;;5075077;28;20576;-76
2022/07/06 03:00:35;;;;;;;5.87;2.93;;;14.50;99.90;;;;;;5075681;28;20242;-77
2022/07/06 03:03:05;;;;;;;3.37;2.50;;;14.50;99.90;;;;;;5075581;28;20696;-75
2022/07/06 03:05:33;;;;;;;4.67;3.00;;;14.40;99.90;;;;;;5075164;28;20207;-76
2022/07/06 03:08:01;;;;;;;4.77;2.50;;;14.40;99.90;;;;;;5075714;28;20298;-76
2022/07/06 03:10:30;;;;;;;4.23;2.63;;;14.40;99.90;;;;;;5075251;28;20294;-74
2022/07/06 03:12:58;;;;;;;3.43;2.60;;;14.30;99.90;;;;;;5075160;28;20693;-76
2022/07/06 03:15:26;;;;;;;3.23;2.60;;;14.30;99.90;;;;;;5075452;28;20724;-75
2022/07/06 03:17:54;;;;;;;5.20;2.60;;;14.20;99.90;;;;;;5075376;28;20215;-76
2022/07/06 03:20:24;;;;;;;4.77;2.67;;;14.20;99.90;;;;;;5074986;28;20203;-74
2022/07/06 03:22:52;;;;;;;4.40;2.90;;;14.10;99.90;;;;;;5075072;28;20199;-75
2022/07/06 03:25:20;;;;;;;5.43;2.87;;;14.10;99.90;;;;;;5075318;28;20290;-74
2022/07/06 03:27:48;;;;;;;4.27;2.70;;;14.10;99.90;;;;;;5074922;28;20242;-74
2022/07/06 03:30:16;;;;;;;3.00;2.63;;;14.00;99.90;;;;;;5074258;28;20708;-75
2022/07/06 03:32:44;;;;;;;5.00;2.50;;;14.00;99.90;;;;;;5074925;28;20207;-75
2022/07/06 03:35:12;;;;;;;5.43;2.80;;;14.00;99.90;;;;;;5074986;28;20293;-75
2022/07/06 03:37:42;;;;;;;5.33;2.70;;;14.00;99.90;;;;;;5074640;28;20257;-77
2022/07/06 03:40:12;;;;;;;6.43;3.10;;;14.00;99.90;;;;;;5073412;28;20298;-77
2022/07/06 03:42:41;;;;;;;4.13;2.83;;;13.90;99.90;;;;;;5074008;28;20239;-77
2022/07/06 03:45:10;;;;;;;6.10;2.30;;;14.00;99.90;;;;;;5074490;28;20243;-74
2022/07/06 03:47:38;;;;;;;7.37;3.23;;;14.00;99.90;;;;;;5073487;28;20725;-77
2022/07/06 03:50:08;;;;;;;3.30;2.60;;;14.10;99.90;;;;;;5074169;28;20208;-74
2022/07/06 03:52:39;;;;;;;5.30;2.80;;;14.00;99.90;;;;;;5071675;28;20693;-76
2022/07/06 03:55:11;;;;;;;4.93;2.73;;;14.00;99.90;;;;;;5074255;28;20227;-74
2022/07/06 03:57:40;;;;;;;6.97;2.80;;;14.10;99.90;;;;;;5070022;28;20211;-76
2022/07/06 04:00:09;;;;;;;5.93;2.50;;;14.10;99.90;;;;;;5073792;28;20208;-76
2022/07/06 04:02:38;;;;;;;4.50;2.60;;;14.10;99.90;;;;;;5072784;28;20207;-74
2022/07/06 04:05:06;;;;;;;4.17;2.70;;;14.10;99.90;;;;;;5074233;28;20207;-76
2022/07/06 04:07:35;;;;;;;4.43;2.73;;;14.20;99.90;;;;;;5070998;28;20200;-75
2022/07/06 04:10:03;;;;;;;3.67;2.80;;;14.20;99.90;;;;;;5074340;28;20286;-77
2022/07/06 04:12:33;;;;;;;5.53;2.63;;;14.20;99.90;;;;;;5071151;28;20242;-76
2022/07/06 04:15:01;;;;;;;3.53;2.63;;;14.20;99.90;;;;;;5073847;28;20243;-78
2022/07/06 04:20:15;;;;;;;6.47;2.57;;;14.40;99.90;;;;;;5075640;28;20210;-72
2022/07/06 04:22:43;;;;;;;3.40;2.30;;;14.40;99.90;;;;;;5073551;28;20629;-74
2022/07/06 04:25:11;;;;;;;4.30;2.77;;;14.50;99.90;;;;;;5073822;28;20206;-75
2022/07/06 04:27:41;;;;;;;3.90;2.63;;;14.50;99.90;;;;;;5073713;28;20227;-75
2022/07/06 04:30:10;;;;;;;5.03;2.53;;;14.60;99.90;;;;;;5073606;28;20250;-76
2022/07/06 04:32:39;;;;;;;4.30;2.60;;;14.50;99.90;;;;;;5073043;28;20288;-75
2022/07/06 04:35:08;;;;;;;4.20;2.67;;;14.60;99.90;;;;;;5072624;28;20219;-76
2022/07/06 04:37:37;;;;;;;2.90;2.40;;;14.70;99.90;;;;;;5074601;28;20637;-74
2022/07/06 04:40:06;;;;;;;5.77;2.60;;;14.60;99.90;;;;;;5073238;28;20250;-76
2022/07/06 04:42:34;;;;;;;8.43;2.87;;;14.70;99.90;;;;;;5070109;28;20264;-74
2022/07/06 04:45:04;;;;;;;2.43;2.23;;;14.70;99.90;;;;;;5072558;28;20240;-77
2022/07/06 04:47:33;;;;;;;4.30;2.50;;;14.80;99.90;;;;;;5072350;28;20714;-75
2022/07/06 04:50:01;;;;;;;3.87;2.50;;;14.90;99.90;;;;;;5073106;28;20679;-78
2022/07/06 04:52:29;;;;;;;3.33;2.60;;;14.90;99.90;;;;;;5073408;28;20231;-76
2022/07/06 04:54:57;;;;;;;6.47;2.70;;;14.90;99.90;;;;;;5073600;28;20335;-76
2022/07/06 04:57:29;;;;;;;3.43;2.50;;;15.00;99.90;;;;;;5073209;28;20285;-78
2022/07/06 04:59:57;;;;;;;3.67;2.40;;;15.10;99.90;;;;;;5072588;28;20227;-76
2022/07/06 05:02:26;;;;;;;6.50;2.60;;;15.20;99.90;;;;;;5073110;28;20562;-76
2022/07/06 05:04:54;;;;;;;3.40;2.40;;;15.60;99.90;;;;;;5073179;28;20196;-77
2022/07/06 05:07:27;;;;;;;3.87;2.20;;;15.80;99.90;;;;;;5063912;28;20341;-77
2022/07/06 05:09:56;;;;;;;4.97;2.30;;;16.00;99.90;;;;;;5054744;28;20237;-77
2022/07/06 05:12:24;;;;;;;6.80;2.00;;;16.20;99.90;;;;;;5075909;28;20264;-75
2022/07/06 05:14:52;;;;;;;2.90;2.07;;;16.40;99.90;;;;;;5077477;28;20274;-73
2022/07/06 05:17:20;;;;;;;3.53;2.17;;;16.50;99.90;;;;;;5078207;28;20207;-75
2022/07/06 05:19:57;;;;;;;2.37;1.90;;;16.50;99.90;;;;;;5076828;28;20333;-76
2022/07/06 05:22:26;;;;;;;2.60;1.97;;;16.70;99.90;;;;;;5077570;28;20634;-75
2022/07/06 05:24:55;;;;;;;3.43;2.00;;;16.80;99.90;;;;;;5074004;28;20249;-78
2022/07/06 05:27:24;;;;;;;3.33;1.80;;;17.00;99.90;;;;;;5070015;28;20242;-76
2022/07/06 05:29:52;;;;;;;3.47;1.97;;;17.10;99.90;;;;;;5070009;28;20257;-78
2022/07/06 05:32:20;;;;;;;3.60;1.90;;;17.30;99.90;;;;;;5073504;28;20204;-77
2022/07/06 05:34:48;;;;;;;4.23;2.03;;;17.30;99.90;;;;;;5073165;28;20281;-76
2022/07/06 05:37:18;;;;;;;2.07;1.87;;;17.40;99.90;;;;;;5072667;28;20242;-74
2022/07/06 05:39:49;;;;;;;3.77;1.80;;;17.60;99.90;;;;;;5072621;28;20239;-74
2022/07/06 05:42:18;;;;;;;4.83;1.90;;;17.80;99.90;;;;;;5075259;28;20216;-77
2022/07/06 05:44:46;;;;;;;2.60;1.90;;;17.80;99.90;;;;;;5075893;28;20203;-77
2022/07/06 05:50:14;;;;;;;2.93;1.60;;;17.80;99.90;;;;;;5023194;28;20271;-77
2022/07/06 05:52:55;;;;;;;4.27;1.80;;;18.00;99.90;;;;;;5055061;28;20230;-75
2022/07/06 05:55:23;;;;;;;3.10;1.80;;;18.40;99.90;;;;;;5054588;28;20236;-73
2022/07/06 05:57:53;;;;;;;4.07;1.70;;;18.80;99.90;;;;;;5054990;28;20216;-77
2022/07/06 06:00:22;;;;;;;3.03;1.67;;;19.60;99.90;;;;;;5072046;28;20269;-76
2022/07/06 06:02:50;;;;;;;3.13;1.80;;;20.00;99.90;;;;;;5072371;28;20246;-76
2022/07/06 06:05:19;;;;;;;2.17;1.60;;;20.10;99.90;;;;;;5071987;28;20290;-77
2022/07/06 06:07:53;;;;;;;2.13;1.50;;;20.40;99.90;;;;;;5072296;28;20207;-76
2022/07/06 06:10:23;;;;;;;4.00;1.60;;;21.50;99.90;;;;;;5070750;28;20229;-75
2022/07/06 06:12:51;;;;;;;3.90;1.47;;;21.90;99.90;;;;;;5071021;28;20630;-75
2022/07/06 06:15:20;;;;;;;1.93;1.40;;;22.80;99.90;;;;;;5071533;28;20274;-75
2022/07/06 06:17:48;;;;;;;2.97;1.70;;;23.50;99.90;;;;;;5071008;28;20626;-77
2022/07/06 06:20:17;;;;;;;3.27;1.57;;;23.90;99.90;;;;;;5070971;28;20731;-75
2022/07/06 06:22:47;;;;;;;5.70;1.60;;;23.80;99.90;;;;;;5071125;28;20199;-76
2022/07/06 06:25:17;;;;;;;3.17;1.60;;;23.50;99.90;;;;;;5068442;28;20749;-77
2022/07/06 06:27:45;;;;;;;4.33;1.60;;;23.00;99.90;;;;;;5071148;28;20253;-78
2022/07/06 06:30:14;;;;;;;2.60;1.70;;;22.80;99.90;;;;;;5056419;28;20258;-77
2022/07/06 06:32:42;;;;;;;3.97;1.67;;;23.10;99.90;;;;;;5071141;28;20286;-75
2022/07/06 06:35:10;;;;;;;3.03;1.60;;;23.40;99.90;;;;;;5070886;28;20227;-74
2022/07/06 06:37:38;;;;;;;3.27;1.73;;;24.10;99.90;;;;;;5071037;28;20749;-75
2022/07/06 06:40:08;;;;;;;3.37;1.60;;;24.60;99.90;;;;;;5071105;28;20211;-78
2022/07/06 06:42:38;;;;;;;2.00;1.40;;;25.50;99.90;;;;;;5070929;28;20727;-76
2022/07/06 06:45:07;;;;;;;3.47;1.73;;;26.50;99.90;;;;;;5071027;28;20223;-76
2022/07/06 06:47:39;;;;;;;4.35;1.80;;;26.90;98.80;;;;;;5068060;28;20227;-76
2022/07/06 06:50:08;;;;;;;3.95;1.80;;;27.20;98.30;;;;;;5070420;28;20203;-77
2022/07/06 06:52:36;;;;;;;3.55;1.60;;;27.70;95.40;;;;;;5070594;28;20277;-78
2022/07/06 06:55:09;;;;;;;4.35;1.50;;;28.20;93.30;;;;;;5068731;28;20232;-76
2022/07/06 06:57:38;;;;;;;2.83;1.70;;;28.30;93.60;;;;;;5070909;28;20298;-74
2022/07/06 07:00:08;;;;;;;2.72;1.60;;;28.50;92.30;;;;;;5069923;28;20211;-76
2022/07/06 07:02:36;;;;;;;3.70;1.80;;;28.30;92.10;;;;;;5070863;28;20223;-76
2022/07/06 07:05:05;;;;;;;4.05;1.70;;;28.60;91.50;;;;;;5066237;28;20307;-76
2022/07/06 07:07:34;;;;;;;7.72;1.60;;;28.80;90.20;;;;;;5069994;28;20199;-74
2022/07/06 07:10:03;;;;;;;2.78;1.80;;;29.20;89.70;;;;;;5070122;28;20231;-76
2022/07/06 07:12:32;;;;;;;3.40;1.50;;;29.50;86.40;;;;;;5070290;28;20288;-76
2022/07/06 07:15:06;;;;;;;4.05;1.75;;;29.80;86.50;;;;;;5070146;28;20215;-77
2022/07/06 07:17:34;;;;;;;5.28;1.98;;;30.70;86.20;;;;;;5070562;28;20299;-78
2022/07/06 07:20:02;;;;;;;5.43;2.00;;;30.50;82.60;;;;;;5067876;28;20204;-76
2022/07/06 07:22:31;;;;;;;3.95;1.48;;;31.00;84.80;;;;;;5070523;28;20216;-77
2022/07/06 07:24:59;;;;;;;3.40;1.77;;;30.20;83.00;;;;;;5070453;28;20207;-78
2022/07/06 07:27:28;;;;;;;4.65;1.60;;;30.10;83.20;;;;;;5070283;28;20195;-76
2022/07/06 07:29:56;;;;;;;3.65;1.70;;;31.00;82.40;;;;;;5070355;28;20219;-78
2022/07/06 07:32:25;;;;;;;3.67;1.73;;;31.20;78.90;;;;;;5069238;28;20204;-78
2022/07/06 07:34:54;;;;;;;5.38;2.10;;;31.00;79.10;;;;;;5071414;28;20257;-75
2022/07/06 07:37:22;;;;;;;2.25;1.60;;;30.50;76.00;;;;;;5068662;28;20670;-76
2022/07/06 07:39:51;;;;;;;3.80;1.70;;;30.20;79.70;;;;;;5070185;28;20257;-76
2022/07/06 07:42:19;;;;;;;3.47;1.55;;;29.80;81.20;;;;;;5071393;28;20246;-76
2022/07/06 07:44:48;;;;;;;5.38;1.75;;;29.80;82.40;;;;;;5073122;28;20544;-75
2022/07/06 07:47:16;;;;;;;4.05;1.58;;;30.50;79.20;;;;;;5073557;28;20616;-78
2022/07/06 07:49:46;;;;;;;4.60;1.70;;;29.00;81.30;;;;;;5070806;28;20664;-76
2022/07/06 07:52:14;;;;;;;4.90;1.90;;;28.70;84.30;;;;;;5073908;28;20277;-77
2022/07/06 07:54:43;;;;;;;4.57;2.05;;;29.60;79.80;;;;;;5073994;28;20609;-76
2022/07/06 07:57:21;;;;;;;2.42;1.60;;;30.50;80.30;;;;;;5073848;28;20605;-77
2022/07/06 07:59:49;;;;;;;3.65;1.63;;;30.50;76.80;;;;;;5071581;28;20204;-77
2022/07/06 08:02:17;;;;;;;6.15;1.85;;;31.60;79.90;;;;;;5074167;28;20199;-77
2022/07/06 08:04:47;;;;;;;5.50;1.73;;;31.80;78.80;;;;;;5071018;28;20302;-77
2022/07/06 08:07:15;;;;;;;3.17;1.70;;;31.70;76.50;;;;;;5073981;28;20208;-78
2022/07/06 08:09:43;;;;;;;4.93;2.10;;;31.50;76.60;;;;;;5073775;28;20215;-76
2022/07/06 08:12:11;;;;;;;5.97;2.05;;;30.70;75.90;;;;;;5073993;28;20200;-77
2022/07/06 08:14:40;;;;;;;4.85;1.75;;;30.20;78.00;;;;;;5073652;28;20294;-76
2022/07/06 08:17:08;;;;;;;4.50;1.90;;;30.80;80.70;;;;;;5073011;28;20222;-78
2022/07/06 08:19:36;;;;;;;5.15;1.98;;;30.80;76.80;;;;;;5073500;28;20336;-75
2022/07/06 08:22:06;;;;;;;3.75;1.85;;;29.50;79.90;;;;;;5073195;28;20246;-77
2022/07/06 08:24:35;;;;;;;4.75;2.10;;;29.00;83.20;;;;;;5072876;28;20212;-76
2022/07/06 08:27:04;;;;;;;3.35;1.85;;;29.30;82.00;;;;;;5073130;28;20207;-76
2022/07/06 08:29:32;;;;;;;5.28;1.80;;;29.40;79.30;;;;;;5072913;28;20231;-77
2022/07/06 08:32:00;;;;;;;4.32;1.90;;;29.80;84.30;;;;;;5073450;28;20273;-77
2022/07/06 08:34:44;;;;;;;2.63;1.80;;;31.10;77.60;;;;;;5072515;28;20204;-76
2022/07/06 08:37:15;;;;;;;6.53;1.80;;;31.00;76.90;;;;;;5072959;28;20242;-75
2022/07/06 08:39:43;;;;;;;4.72;2.00;;;30.70;77.00;;;;;;5072646;28;20200;-77
2022/07/06 08:42:12;;;;;;;4.22;2.00;;;30.30;75.20;;;;;;5072973;28;20211;-76
2022/07/06 08:44:41;;;;;;;4.22;1.88;;;29.60;77.50;;;;;;5072573;28;20562;-74
2022/07/06 08:47:10;;;;;;;3.95;1.70;;;29.50;77.40;;;;;;5073034;28;20291;-78
2022/07/06 08:49:40;;;;;;;5.10;1.90;;;29.40;79.30;;;;;;5072811;28;20253;-77
2022/07/06 08:52:08;;;;;;;4.20;1.88;;;29.80;78.10;;;;;;5070601;28;20239;-78
2022/07/06 08:54:39;;;;;;;3.33;1.90;;;29.80;80.10;;;;;;5072543;28;20203;-76
2022/07/06 08:57:07;;;;;;;3.53;2.17;;;30.10;77.60;;;;;;5070472;28;20231;-77
2022/07/06 08:59:36;;;;;;;2.90;1.90;;;30.40;75.10;;;;;;5071415;28;20238;-76
2022/07/06 09:02:05;;;;;;;4.45;2.20;;;30.60;75.00;;;;;;5070083;28;20286;-76
2022/07/06 09:04:35;;;;;;;5.65;1.95;;;30.50;76.70;;;;;;5072994;28;20200;-76
2022/07/06 09:07:04;;;;;;;3.92;1.83;;;30.90;76.10;;;;;;5072669;28;20203;-76
2022/07/06 09:09:33;;;;;;;3.17;2.03;;;31.00;76.70;;;;;;5072029;28;20200;-77
2022/07/06 09:12:02;;;;;;;6.35;2.17;;;31.80;75.50;;;;;;5071972;28;20249;-76
2022/07/06 09:14:31;;;;;;;6.13;1.70;;;31.30;73.50;;;;;;5071928;28;20210;-76
2022/07/06 09:17:04;;;;;;;5.63;2.25;;;32.00;75.20;;;;;;5072043;28;20254;-77
2022/07/06 09:19:34;;;;;;;7.90;2.28;;;32.10;69.50;;;;;;5071833;28;20265;-77
2022/07/06 09:22:02;;;;;;;3.17;1.80;;;32.40;66.50;;;;;;5072580;28;20199;-76
2022/07/06 09:24:31;;;;;;;4.55;1.83;;;31.70;74.10;;;;;;5071917;28;20250;-76
2022/07/06 09:27:04;;;;;;;5.30;2.10;;;31.50;73.80;;;;;;5072215;28;20765;-78
2022/07/06 09:29:33;;;;;;;3.42;1.90;;;30.50;74.70;;;;;;5071590;28;20204;-78
2022/07/06 09:32:05;;;;;;;4.68;1.88;;;30.20;76.70;;;;;;5072295;28;20227;-78
2022/07/06 09:34:43;;;;;;;3.53;1.90;;;30.30;73.30;;;;;;5072266;28;20626;-76
2022/07/06 09:37:15;;;;;;;6.60;1.83;;;29.50;76.20;;;;;;5064617;28;20227;-74
2022/07/06 09:39:45;;;;;;;5.97;2.30;;;29.80;76.50;;;;;;5072125;28;20217;-75
2022/07/06 09:42:15;;;;;;;4.78;2.13;;;30.50;73.00;;;;;;5071315;28;20235;-76
2022/07/06 09:44:44;;;;;;;9.38;2.20;;;31.10;74.40;;;;;;5072210;28;20215;-76
2022/07/06 09:47:14;;;;;;;3.63;2.00;;;31.30;73.10;;;;;;5064352;28;20220;-76
2022/07/06 09:49:43;;;;;;;3.28;2.00;;;31.50;74.60;;;;;;5072045;28;20218;-77
2022/07/06 09:52:13;;;;;;;6.68;2.00;;;31.70;74.60;;;;;;5064033;28;20261;-76
2022/07/06 09:54:42;;;;;;;7.07;1.80;;;31.90;68.60;;;;;;5071542;28;20210;-78
2022/07/06 09:57:10;;;;;;;3.55;1.90;;;32.40;67.60;;;;;;5071414;28;20692;-77
2022/07/06 09:59:40;;;;;;;3.72;2.00;;;32.60;70.00;;;;;;5070106;28;20241;-76
2022/07/06 10:02:09;;;;;;;4.07;1.90;;;32.20;69.50;;;;;;5052150;28;20295;-76
2022/07/06 10:04:38;;;;;;;4.97;2.20;;;31.00;69.40;;;;;;5063824;28;20250;-79
2022/07/06 10:07:08;;;;;;;3.97;1.65;;;31.30;73.60;;;;;;5072787;28;20199;-77
2022/07/06 10:09:36;;;;;;;3.03;1.70;;;31.30;72.20;;;;;;5072806;28;20196;-76
2022/07/06 10:12:09;;;;;;;5.00;1.90;;;31.90;72.00;;;;;;5074000;28;20642;-77
2022/07/06 10:14:41;;;;;;;4.75;2.00;;;32.40;72.00;;;;;;5072653;28;20211;-77
2022/07/06 10:17:18;;;;;;;4.93;1.80;;;31.80;67.30;;;;;;5065600;28;20272;-78
2022/07/06 10:19:49;;;;;;;4.65;1.80;;;32.40;69.80;;;;;;5071602;28;20211;-74
2022/07/06 10:22:18;;;;;;;3.20;1.80;;;32.70;67.60;;;;;;5072763;28;20238;-78
2022/07/06 10:24:48;;;;;;;5.50;1.63;;;32.00;69.00;;;;;;5072545;28;20215;-76
2022/07/06 10:27:17;;;;;;;6.55;1.70;;;31.70;70.30;;;;;;5071925;28;20200;-76
2022/07/06 10:29:47;;;;;;;2.92;1.80;;;31.90;69.70;;;;;;5072252;28;20211;-76
2022/07/06 10:32:19;;;;;;;3.65;1.80;;;32.30;66.20;;;;;;5071663;28;20239;-78
2022/07/06 10:34:48;;;;;;;4.18;2.00;;;32.80;66.10;;;;;;5071391;28;20294;-79
2022/07/06 10:37:24;;;;;;;5.30;1.83;;;33.80;61.80;;;;;;5071033;28;20219;-78
2022/07/06 10:42:43;;;;;;;4.03;1.67;;;33.10;63.60;;;;;;5071318;28;20219;-77
2022/07/06 10:45:19;;;;;;;2.55;1.50;;;32.50;67.60;;;;;;5071753;28;20202;-78
2022/07/06 10:47:48;;;;;;;5.45;1.70;;;32.60;64.60;;;;;;5070842;28;20218;-79
2022/07/06 10:50:16;;;;;;;5.28;1.67;;;32.80;65.00;;;;;;5073514;28;20235;-80
2022/07/06 10:52:51;;;;;;;2.83;1.70;;;31.80;64.30;;;;;;5071357;28;20230;-79
2022/07/06 10:55:38;;;;;;;4.20;1.70;;;31.30;66.70;;;;;;5070745;28;20239;-79
2022/07/06 10:58:07;;;;;;;3.63;1.50;;;31.30;63.80;;;;;;5068161;28;20269;-77
2022/07/06 11:00:53;;;;;;;4.97;1.60;;;31.60;64.30;;;;;;5068759;28;20269;-78
2022/07/06 11:03:32;;;;;;;3.05;1.90;;;31.90;66.10;;;;;;5070852;28;20227;-78
2022/07/06 11:06:02;;;;;;;4.35;1.98;;;31.90;67.10;;;;;;5071321;28;20215;-78
2022/07/06 11:08:51;;;;;;;3.25;1.65;;;31.10;64.40;;;;;;5089045;28;20277;-78
2022/07/06 11:11:20;;;;;;;5.03;1.75;;;30.00;67.00;;;;;;5089969;28;20540;-77
2022/07/06 11:13:50;;;;;;;7.78;1.80;;;30.10;71.10;;;;;;5071551;28;20203;-77
2022/07/06 11:16:22;;;;;;;4.85;1.77;;;30.70;73.90;;;;;;5071574;28;20207;-75
2022/07/06 11:19:00;;;;;;;3.95;1.70;;;31.30;65.30;;;;;;5074237;28;20580;-80
2022/07/06 11:21:40;;;;;;;3.72;1.70;;;31.70;65.60;;;;;;5075064;28;20265;-78
2022/07/06 11:24:11;;;;;;;3.00;1.77;;;32.00;66.10;;;;;;5075796;28;20207;-76
2022/07/06 11:26:41;;;;;;;2.22;1.70;;;32.00;62.40;;;;;;5077816;28;20234;-78
2022/07/06 11:29:11;;;;;;;7.22;1.65;;;31.40;67.00;;;;;;5078128;28;20327;-78
2022/07/06 11:31:43;;;;;;;3.20;1.77;;;31.50;63.80;;;;;;5077489;28;20303;-78
2022/07/06 11:34:14;;;;;;;3.72;1.60;;;31.00;66.90;;;;;;5078781;28;20275;-79
2022/07/06 11:36:42;;;;;;;4.50;1.90;;;30.60;62.70;;;;;;5080276;28;20202;-77
2022/07/06 11:39:14;;;;;;;7.65;3.75;;;30.80;68.80;;;;;;5096602;28;20207;-75
2022/07/06 11:41:42;;;;;;;6.88;2.45;;;30.30;70.20;;;;;;5079395;28;20219;-78
2022/07/06 11:44:17;;;;;;;6.32;1.67;;;30.50;70.10;;;;;;5081464;28;20210;-78
2022/07/06 11:46:47;;;;;;;3.25;1.40;;;30.00;67.30;;;;;;5076153;28;20237;-79
2022/07/06 11:49:16;;;;;;;7.05;1.90;;;29.30;68.20;;;;;;5075585;28;20199;-77
2022/07/06 11:51:46;;;;;;;2.92;1.60;;;28.90;70.50;;;;;;5071867;28;20257;-77
2022/07/06 11:54:16;;;;;;;5.90;1.75;;;28.00;68.60;;;;;;5078128;28;20676;-76
2022/07/06 11:56:48;;;;;;;3.43;2.07;;;27.40;71.10;;;;;;5091587;28;20234;-78
2022/07/06 11:59:22;;;;;;;6.27;1.87;;;27.60;72.70;;;;;;5079820;28;20231;-77
2022/07/06 12:02:00;;;;;;;3.17;1.60;;;28.00;71.40;;;;;;5074779;28;20685;-76
2022/07/06 12:04:32;;;;;;;4.30;1.70;;;28.50;73.20;;;;;;5070292;28;20207;-76
2022/07/06 12:07:02;;;;;;;4.37;1.73;;;28.30;71.10;;;;;;5069364;28;20709;-78
2022/07/06 12:09:32;;;;;;;3.60;1.60;;;27.60;69.30;;;;;;5063766;28;20204;-76
2022/07/06 12:12:02;;;;;;;3.10;1.60;;;26.80;74.80;;;;;;5061060;28;20205;-77
2022/07/06 12:14:32;;;;;;;9.70;2.67;;;26.70;78.50;;;;;;5075176;28;20203;-75
2022/07/06 12:17:06;;;;;;;5.37;1.90;;;27.00;78.30;;;;;;5075322;28;20215;-75
2022/07/06 12:19:36;;;;;;;6.87;1.90;;;27.30;75.40;;;;;;5074365;28;20239;-77
2022/07/06 12:22:05;;;;;;;4.17;1.60;;;26.90;73.50;;;;;;5074377;28;20677;-76
2022/07/06 12:24:34;;;;;;;3.17;1.60;;;26.60;74.70;;;;;;5071787;28;20729;-77
2022/07/06 12:27:11;;;;;;;4.13;1.53;;;26.40;73.40;;;;;;5073634;28;20242;-75
2022/07/06 12:29:40;;;;;;;3.77;1.70;;;26.50;74.90;;;;;;5072850;28;20207;-74
2022/07/06 12:32:15;;;;;;;3.80;1.60;;;26.70;74.50;;;;;;5082874;28;20214;-76
2022/07/06 12:34:44;;;;;;;3.33;1.70;;;26.10;76.40;;;;;;5074968;28;20649;-77
2022/07/06 12:37:13;;;;;;;2.57;1.70;;;26.30;76.60;;;;;;5064224;28;20234;-74
2022/07/06 12:39:44;;;;;;;5.23;1.60;;;26.90;77.30;;;;;;5060770;28;20712;-75
2022/07/06 12:42:14;;;;;;;4.70;2.00;;;27.30;77.10;;;;;;5073366;28;20216;-75
2022/07/06 12:44:48;;;;;;;3.33;1.57;;;27.50;74.30;;;;;;5073308;28;20235;-76
2022/07/06 12:47:21;;;;;;;4.37;1.80;;;27.60;74.30;;;;;;5072936;28;20212;-76
2022/07/06 12:50:04;;;;;;;5.30;1.60;;;27.60;71.90;;;;;;5073723;28;20280;-76
2022/07/06 12:52:33;;;;;;;3.43;1.57;;;27.90;72.10;;;;;;5074633;28;20230;-76
2022/07/06 12:55:02;;;;;;;4.47;1.60;;;27.90;73.80;;;;;;5074828;28;20565;-76
2022/07/06 12:57:44;;;;;;;2.00;1.47;;;27.90;66.50;;;;;;5063606;28;20242;-76
2022/07/06 13:00:13;;;;;;;4.73;1.50;;;27.80;71.20;;;;;;5066945;28;20246;-74
2022/07/06 13:02:46;;;;;;;5.27;1.70;;;27.60;68.60;;;;;;5054907;28;20662;-75
2022/07/06 13:05:35;;;;;;;4.40;1.50;;;27.60;72.10;;;;;;5053891;28;20208;-75
2022/07/06 13:08:04;;;;;;;3.00;1.37;;;27.80;69.20;;;;;;5053474;28;20279;-76
2022/07/06 13:10:33;;;;;;;1.97;1.37;;;27.90;70.10;;;;;;5056984;28;20239;-75